createdAt,value
2023-02-04T00:09:16.567Z,1.20
2023-02-04T00:24:18.523Z,1.33
2023-02-04T00:39:20.475Z,1.90
2023-02-04T00:54:22.453Z,1.90
2023-02-04T01:09:25.682Z,1.85
2023-02-04T01:24:27.627Z,3.03
2023-02-04T01:39:29.541Z,2.40
2023-02-04T01:54:32.400Z,14.73
2023-02-04T02:09:35.092Z,16.63
2023-02-04T02:24:37.061Z,15.25
2023-02-04T02:39:40.912Z,12.95
2023-02-04T02:54:42.962Z,9.95
2023-02-04T03:09:45.327Z,7.90
2023-02-04T03:24:47.425Z,5.45
2023-02-04T03:39:49.385Z,3.78
2023-02-04T03:54:51.354Z,4.38
2023-02-04T04:09:53.317Z,5.40
2023-02-04T04:24:55.287Z,5.88
2023-02-04T04:39:57.219Z,6.07
2023-02-04T04:54:59.174Z,6.18
2023-02-04T05:10:01.111Z,7.53
2023-02-04T05:25:03.288Z,7.22
2023-02-04T05:40:06.274Z,7.40
2023-02-04T05:55:10.510Z,7.70
2023-02-04T06:10:12.488Z,7.82
2023-02-04T06:25:14.501Z,9.35
2023-02-04T06:40:16.588Z,9.15
2023-02-04T06:55:18.959Z,7.43
2023-02-04T07:10:23.796Z,7.22
2023-02-04T07:25:26.123Z,5.55
2023-02-04T07:40:28.069Z,5.03
2023-02-04T07:55:30.016Z,4.55
2023-02-04T08:10:32.340Z,5.22
2023-02-04T08:25:34.592Z,4.63
2023-02-04T08:40:36.530Z,4.10
2023-02-04T08:55:38.487Z,4.45
2023-02-04T09:10:40.452Z,3.67
2023-02-04T09:25:44.551Z,3.72
2023-02-04T09:40:51.587Z,4.10
2023-02-04T09:55:53.526Z,3.80
2023-02-04T10:10:57.845Z,5.00
2023-02-04T10:26:00.173Z,3.92
2023-02-04T10:41:06.095Z,4.35
2023-02-04T10:56:22.301Z,3.72
2023-02-04T11:11:26.400Z,3.55
2023-02-04T11:27:13.470Z,3.35
2023-02-04T11:42:23.159Z,2.90
2023-02-04T11:57:25.730Z,2.70
2023-02-04T12:12:31.321Z,2.90
2023-02-04T12:27:33.272Z,2.58
2023-02-04T12:42:35.199Z,3.25
2023-02-04T12:57:37.166Z,2.97
2023-02-04T13:12:39.125Z,3.35
2023-02-04T13:27:41.452Z,2.55
2023-02-04T13:42:43.495Z,2.70
2023-02-04T13:57:45.470Z,3.00
2023-02-04T14:12:47.412Z,2.58
2023-02-04T14:27:49.680Z,3.80
2023-02-04T14:42:51.746Z,4.68
2023-02-04T14:57:53.808Z,5.03
2023-02-04T15:12:55.986Z,5.15
2023-02-04T15:27:57.946Z,4.95
2023-02-04T15:43:00.017Z,5.60
2023-02-04T15:58:02.011Z,4.63
2023-02-04T16:13:03.972Z,3.80
2023-02-04T16:28:05.921Z,3.22
2023-02-04T16:43:08.133Z,3.67
2023-02-04T16:58:10.980Z,4.35
2023-02-04T17:13:13.054Z,4.60
2023-02-04T17:28:15.098Z,3.72
2023-02-04T17:43:17.698Z,5.00
2023-02-04T17:58:24.055Z,4.75
2023-02-04T18:13:35.299Z,5.50
2023-02-04T18:28:46.804Z,4.93
2023-02-04T18:43:53.638Z,5.15
2023-02-04T18:58:56.223Z,4.50
2023-02-04T19:13:59.473Z,5.55
2023-02-04T19:29:21.798Z,5.10
2023-02-04T19:44:46.462Z,4.60
2023-02-04T19:59:48.423Z,4.82
2023-02-04T20:15:17.630Z,5.55
2023-02-04T20:30:30.176Z,5.78
2023-02-04T20:45:49.725Z,5.57
2023-02-04T21:00:54.364Z,6.10
2023-02-04T21:15:56.779Z,5.97
2023-02-04T21:31:00.186Z,6.50
2023-02-04T21:46:02.232Z,5.78
2023-02-04T22:01:04.317Z,4.53
2023-02-04T22:16:06.333Z,4.88
2023-02-04T22:31:08.806Z,6.00
2023-02-04T22:46:10.943Z,6.00
2023-02-04T23:01:13.055Z,6.40
2023-02-04T23:16:15.106Z,6.65
2023-02-04T23:31:17.251Z,6.45
2023-02-04T23:46:19.491Z,6.65
